createdAt,value
2023-03-29T14:01:07.475Z,1729.9231
2023-03-29T14:02:08.663Z,1751.3077
2023-03-29T14:03:09.833Z,2326.1538
2023-03-29T14:04:11.093Z,3441.6155
2023-03-29T14:05:12.318Z,1873.5385
2023-03-29T14:06:13.546Z,1414.4615
2023-03-29T14:07:14.812Z,1384.1538
2023-03-29T14:08:19.401Z,1359.5385
2023-03-29T14:09:20.931Z,1353.6154
2023-03-29T14:10:22.423Z,1395.8462
2023-03-29T14:11:24.481Z,1436.7693
2023-03-29T14:12:25.653Z,1393.3077
2023-03-29T14:13:27.036Z,1368.3846
2023-03-29T14:14:28.553Z,1367.3846
2023-03-29T14:15:30.049Z,1366.0769
2023-03-29T14:16:31.815Z,1352.1538
2023-03-29T14:17:33.133Z,1341.5385
2023-03-29T14:18:34.802Z,1351.2307
2023-03-29T14:19:36.128Z,1360.4615
2023-03-29T14:21:58.808Z,1390.7693
2023-03-29T14:23:00.047Z,1350.1538
2023-03-29T14:24:01.282Z,1337.6923
2023-03-29T14:25:02.477Z,1334.4615
2023-03-29T14:26:03.972Z,1350.9231
2023-03-29T14:27:04.989Z,1358.6154
2023-03-29T14:28:06.234Z,1354.3846
2023-03-29T14:29:07.445Z,1351.6154
2023-03-29T14:30:07.600Z,1352.0000
2023-03-29T14:32:04.573Z,1333.8462
2023-03-29T14:33:05.787Z,1319.9231
2023-03-29T14:34:06.958Z,1313.3846
2023-03-29T14:35:10.401Z,1312.6154
2023-03-29T14:36:12.064Z,1309.6154
2023-03-29T14:37:13.475Z,1313.7693
2023-03-29T14:38:14.927Z,1319.6923
2023-03-29T14:39:17.847Z,1321.8462
2023-03-29T14:40:19.120Z,1315.1538
2023-03-29T14:41:21.998Z,1359.2307
2023-03-29T14:42:21.575Z,1336.3077
2023-03-29T14:43:22.746Z,1308.1538
2023-03-29T14:44:24.076Z,1298.8462
2023-03-29T14:45:25.566Z,1294.6154
2023-03-29T14:46:27.197Z,1295.5385
2023-03-29T14:47:28.650Z,1303.8462
2023-03-29T14:48:30.137Z,1303.6923
2023-03-29T14:49:31.702Z,1303.0000
2023-03-29T14:50:33.196Z,1302.7693
2023-03-29T14:51:34.694Z,1263.6923
2023-03-29T14:52:36.239Z,1166.0769
2023-03-29T14:53:37.762Z,1174.9231
2023-03-29T14:54:39.242Z,1163.4615
2023-03-29T14:55:40.799Z,1148.2307
2023-03-29T14:56:42.308Z,1155.6923
2023-03-29T14:57:43.852Z,1146.7693
2023-03-29T14:58:45.316Z,1114.1538
2023-03-29T14:59:46.854Z,1101.1538
2023-03-29T15:00:48.399Z,1102.2307
2023-03-29T15:01:50.010Z,1144.7693
2023-03-29T15:02:51.536Z,1161.6923
2023-03-29T15:03:54.712Z,1165.0000
2023-03-29T15:04:54.461Z,1158.9231
2023-03-29T15:05:56.003Z,1150.5385
2023-03-29T15:06:57.510Z,1144.9231
2023-03-29T15:07:59.025Z,1135.4615
2023-03-29T15:09:06.161Z,1127.6154
2023-03-29T15:10:04.418Z,1118.4615
2023-03-29T15:11:05.694Z,1117.4615
2023-03-29T15:12:06.925Z,1113.6923
2023-03-29T15:13:08.181Z,1111.4615
2023-03-29T15:14:09.433Z,1110.5385
2023-03-29T15:15:10.629Z,1109.0769
2023-03-29T15:16:12.075Z,1108.4615
2023-03-29T15:17:13.122Z,1107.6923
2023-03-29T15:18:14.441Z,1105.4615
2023-03-29T15:19:15.725Z,1105.3846
2023-03-29T15:20:17.260Z,1102.0000
2023-03-29T15:21:18.794Z,1102.2307
2023-03-29T15:22:20.275Z,1102.3077
2023-03-29T15:23:21.854Z,1101.2307
2023-03-29T15:24:23.368Z,1098.0000
2023-03-29T15:25:24.877Z,1097.7693
2023-03-29T15:26:26.394Z,1097.7693
2023-03-29T15:27:27.928Z,1097.0769
2023-03-29T15:28:29.487Z,1097.4615
2023-03-29T15:29:30.936Z,1096.8462
2023-03-29T15:30:33.982Z,1094.2307
2023-03-29T15:31:35.245Z,1095.0769
2023-03-29T15:32:36.465Z,1090.8462
2023-03-29T15:33:37.922Z,1089.2307
2023-03-29T15:34:38.930Z,1087.0000
2023-03-29T15:35:40.160Z,1084.1538
2023-03-29T15:36:41.703Z,1079.0000
2023-03-29T15:37:43.136Z,1078.1538
2023-03-29T15:38:45.508Z,1079.7693
2023-03-29T15:39:46.180Z,1079.8462
2023-03-29T15:40:47.763Z,1077.9231
2023-03-29T15:41:49.287Z,1079.3846
2023-03-29T15:42:50.760Z,1079.5385
2023-03-29T15:43:52.268Z,1078.0000
2023-03-29T15:44:53.809Z,1077.0769
2023-03-29T15:45:55.330Z,1076.4615
2023-03-29T15:46:56.875Z,1075.9231
2023-03-29T15:47:59.735Z,1075.1538
2023-03-29T15:49:01.015Z,1061.5385
2023-03-29T15:50:02.198Z,1061.1538
2023-03-29T15:51:06.534Z,1060.8462
2023-03-29T15:52:04.677Z,1059.6923
2023-03-29T15:53:15.149Z,1055.5385
2023-03-29T15:54:07.584Z,1050.4615
2023-03-29T15:55:08.998Z,1050.3846
2023-03-29T15:56:10.562Z,1042.2307
2023-03-29T15:57:12.482Z,1048.9231
2023-03-29T15:58:13.665Z,1051.3846
2023-03-29T15:59:18.129Z,1049.0000
2023-03-29T16:00:19.350Z,1060.7693
2023-03-29T16:01:20.574Z,1065.6923
2023-03-29T16:02:21.854Z,1065.6923
2023-03-29T16:03:23.089Z,1063.5385
2023-03-29T16:04:24.291Z,1061.6923
2023-03-29T16:05:25.546Z,1058.4615
2023-03-29T16:06:26.786Z,1055.1538
2023-03-29T16:07:27.980Z,1052.2307
2023-03-29T16:08:29.232Z,1052.3077
2023-03-29T16:09:30.554Z,1052.6923
2023-03-29T16:10:31.798Z,1049.8462
2023-03-29T16:11:33.332Z,1053.0000
2023-03-29T16:12:34.830Z,1051.4615
2023-03-29T16:13:36.509Z,1047.3846
2023-03-29T16:14:37.928Z,1049.9231
2023-03-29T16:15:39.421Z,1050.3846
2023-03-29T16:16:40.969Z,1047.6154
2023-03-29T16:17:42.511Z,1044.9231
2023-03-29T16:18:43.943Z,1047.7693
2023-03-29T16:19:45.542Z,1050.2307
2023-03-29T16:20:46.991Z,1050.0769
2023-03-29T16:21:48.558Z,1048.6923
2023-03-29T16:22:50.031Z,1048.4615
2023-03-29T16:23:51.580Z,1047.6154
2023-03-29T16:24:53.141Z,1050.7693
2023-03-29T16:25:54.633Z,1053.4615
2023-03-29T16:26:56.486Z,1067.1538
2023-03-29T16:27:57.671Z,1073.3846
2023-03-29T16:28:59.165Z,1075.1538
2023-03-29T16:30:00.736Z,1074.5385
2023-03-29T16:31:02.212Z,1076.4615
2023-03-29T16:32:06.265Z,1080.8462
2023-03-29T17:45:53.497Z,2297.3845
2023-03-29T17:46:54.801Z,2317.9231
2023-03-29T17:47:56.045Z,2340.3076
2023-03-29T17:48:57.204Z,2348.4614
2023-03-29T17:52:32.756Z,2237.2307
2023-03-29T17:53:34.018Z,2242.9231
2023-03-29T17:54:35.231Z,2242.6155
2023-03-29T17:55:36.481Z,2246.5386
2023-03-29T17:56:37.710Z,2249.4614
2023-03-29T17:57:39.424Z,2251.1538
2023-03-29T17:58:40.168Z,2243.2307
2023-03-29T17:59:41.473Z,2224.0000
2023-03-29T18:00:46.195Z,2217.6924
2023-03-29T18:01:48.646Z,2203.3076
2023-03-29T18:02:44.656Z,2157.8333
2023-03-29T18:03:46.132Z,2139.3845
2023-03-29T18:04:47.612Z,2150.3076
2023-03-29T18:05:49.126Z,2141.3076
2023-03-29T18:06:50.654Z,2138.4614
2023-03-29T18:07:52.199Z,2146.3845
2023-03-29T18:08:53.714Z,2141.9231
2023-03-29T18:09:55.236Z,2146.0769
2023-03-29T18:10:56.752Z,2129.2307
2023-03-29T18:11:58.283Z,2113.9231
2023-03-29T18:12:59.953Z,2154.2307
2023-03-29T18:14:01.327Z,2189.3845
2023-03-29T18:15:02.858Z,2207.3845
2023-03-29T18:16:04.560Z,2223.0769
2023-03-29T18:17:05.900Z,2222.0000
2023-03-29T18:18:08.740Z,2928.1538
2023-03-29T18:19:08.917Z,2791.8462
2023-03-29T18:20:10.453Z,2285.0000
2023-03-29T18:21:11.948Z,2280.2307
2023-03-29T18:22:13.463Z,2273.9231
2023-03-29T18:23:14.998Z,2251.9231
2023-03-29T18:24:16.518Z,2228.6155
2023-03-29T18:25:18.033Z,2246.0000
2023-03-29T18:26:19.562Z,2244.6155
2023-03-29T18:27:21.115Z,2230.5386
2023-03-29T18:28:22.653Z,2225.1538
2023-03-29T18:29:24.142Z,2217.0769
2023-03-29T18:30:25.647Z,2214.0000
2023-03-29T18:31:27.278Z,2208.6155
2023-03-29T18:32:28.716Z,2167.4614
2023-03-29T18:33:30.234Z,2100.1538
2023-03-29T18:34:31.733Z,2112.8462
2023-03-29T18:35:33.325Z,2110.3076
2023-03-29T18:36:34.780Z,2142.5386
2023-03-29T18:37:36.328Z,2168.6155
2023-03-29T18:38:41.443Z,2161.0769
2023-03-29T18:39:48.951Z,2208.0769
2023-03-29T18:40:44.203Z,2200.4167
2023-03-29T18:43:17.959Z,2186.0000
2023-03-29T18:44:18.607Z,2146.7693
2023-03-29T18:45:20.171Z,2110.2307
2023-03-29T18:46:22.603Z,2099.6924
2023-03-29T18:47:23.407Z,2095.3845
2023-03-29T18:48:24.686Z,2074.0000
2023-03-29T18:49:26.202Z,2059.8462
2023-03-29T18:50:29.449Z,2072.2307
2023-03-29T18:51:29.222Z,2010.6154
2023-03-29T18:52:32.364Z,2082.2307
2023-03-29T18:53:37.034Z,2093.5715
2023-03-29T18:54:38.549Z,2086.3845
2023-03-29T18:55:40.126Z,2068.0000
2023-03-29T18:56:42.028Z,2039.0000
2023-03-29T18:57:43.099Z,2033.2307
2023-03-29T18:58:44.628Z,2024.6154
2023-03-29T18:59:46.134Z,2037.6923
2023-03-29T19:00:47.632Z,2053.5386
2023-03-29T19:01:53.266Z,2062.0769
2023-03-29T19:02:53.867Z,2017.6154
2023-03-29T19:03:55.774Z,2021.2307
2023-03-29T19:04:56.281Z,2032.2307
2023-03-29T19:05:57.503Z,2116.1538
2023-03-29T19:06:58.741Z,2194.6155
2023-03-29T19:07:59.988Z,2184.3076
2023-03-29T19:09:01.242Z,2161.8462
2023-03-29T19:10:02.486Z,2123.0769
2023-03-29T19:11:03.756Z,2130.2307
2023-03-29T19:12:04.969Z,2148.6155
2023-03-29T19:13:06.241Z,2149.8462
2023-03-29T19:14:07.515Z,2101.2307
2023-03-29T19:15:08.940Z,2058.0769
2023-03-29T19:16:10.536Z,2049.2307
2023-03-29T19:17:11.984Z,2048.8462
2023-03-29T19:18:13.630Z,2075.0000
2023-03-29T19:19:14.999Z,2111.0769
2023-03-29T19:20:16.555Z,2140.2307
2023-03-29T19:21:18.045Z,2133.1538
2023-03-29T19:22:19.590Z,2069.2307
2023-03-29T19:23:21.092Z,1998.6923
2023-03-29T19:24:22.642Z,2000.8462
2023-03-29T19:25:24.130Z,1983.9231
2023-03-29T19:26:25.653Z,1962.1538
2023-03-29T19:27:27.196Z,1965.4615
2023-03-29T19:28:28.716Z,1999.8462
2023-03-29T19:29:30.271Z,2069.4614
2023-03-29T19:30:31.735Z,2077.0769
2023-03-29T19:31:33.324Z,2076.5386
2023-03-29T19:32:34.803Z,2068.3845
2023-03-29T19:33:36.318Z,2051.6155
2023-03-29T19:34:37.828Z,2029.8462
2023-03-29T19:35:39.349Z,1997.4615
2023-03-29T19:36:40.858Z,1995.8462
2023-03-29T19:37:42.376Z,1990.0000
2023-03-29T19:38:44.010Z,2002.3077
2023-03-29T19:39:45.448Z,2050.4614
2023-03-29T19:40:46.958Z,2037.6154
2023-03-29T19:41:48.454Z,2033.6923
2023-03-29T19:42:50.036Z,2023.0000
2023-03-29T19:43:51.563Z,2017.2307
2023-03-29T19:44:53.062Z,2013.2307
2023-03-29T19:45:54.748Z,1974.6154
2023-03-29T19:46:56.150Z,1975.2307
2023-03-29T19:47:57.648Z,1970.8462
2023-03-29T19:48:59.127Z,1968.3846
2023-03-29T19:50:00.664Z,1975.9231
2023-03-29T19:51:02.177Z,1971.0000
2023-03-29T19:52:03.729Z,1964.9231
2023-03-29T19:53:05.218Z,1946.6923
2023-03-29T19:54:06.795Z,2005.8462
2023-03-29T19:55:08.318Z,2053.1538
2023-03-29T19:56:09.809Z,2031.6154
2023-03-29T19:57:11.326Z,2030.0000
2023-03-29T19:58:12.906Z,2028.0000
2023-03-29T19:59:14.360Z,2062.9231
2023-03-29T20:00:15.907Z,2068.5386
2023-03-29T20:01:17.406Z,2057.5386
2023-03-29T20:02:18.937Z,2051.0769
2023-03-29T20:03:20.471Z,2054.3076
2023-03-29T20:04:22.033Z,2046.4615
2023-03-29T20:05:23.509Z,2018.6154
2023-03-29T20:06:25.039Z,1991.3077
2023-03-29T20:07:26.545Z,1971.0769
2023-03-29T20:08:28.075Z,1955.6154
2023-03-29T20:09:29.632Z,1952.0000
2023-03-29T20:10:31.136Z,1947.0000
2023-03-29T20:11:32.637Z,1938.2307
2023-03-29T20:12:34.191Z,1932.8462
2023-03-29T20:13:38.718Z,1927.3077
2023-03-29T20:14:37.217Z,1921.0000
2023-03-29T20:15:38.736Z,1923.9231
2023-03-29T20:16:40.316Z,1918.5385
2023-03-29T20:17:41.801Z,1933.3846
2023-03-29T20:18:43.303Z,1948.0000
2023-03-29T20:19:44.860Z,1965.0000
2023-03-29T20:20:46.362Z,1960.9231
2023-03-29T20:21:47.970Z,1959.1538
2023-03-29T20:22:53.696Z,1966.3846
2023-03-29T20:23:51.104Z,1965.3077
2023-03-29T20:24:52.456Z,1972.4615
2023-03-29T20:25:54.012Z,1993.4615
2023-03-29T20:26:55.495Z,1991.6923
2023-03-29T20:27:57.007Z,1993.2307
2023-03-29T20:28:58.529Z,1976.5385
2023-03-29T20:30:00.061Z,1951.2307
2023-03-29T20:31:01.936Z,1937.7693
2023-03-29T20:32:03.151Z,1922.2307
2023-03-29T20:33:04.712Z,1927.3077
2023-03-29T20:34:06.154Z,1919.2307
2023-03-29T20:35:07.691Z,1914.8462
2023-03-29T20:36:09.349Z,1913.5385
2023-03-29T20:37:10.898Z,1918.0769
2023-03-29T20:38:12.269Z,1928.6154
2023-03-29T20:39:13.908Z,1946.2307
2023-03-29T20:40:15.304Z,1955.3846
2023-03-29T20:41:16.822Z,1957.5385
2023-03-29T20:42:18.804Z,1955.8462
2023-03-29T20:43:19.905Z,1951.0000
2023-03-29T20:44:21.859Z,1942.0769
2023-03-29T20:45:22.917Z,1935.0000
2023-03-29T20:46:24.552Z,1968.2307
2023-03-29T20:47:25.973Z,1979.1538
2023-03-29T20:48:27.491Z,1984.4615
2023-03-29T20:49:29.164Z,1984.6154
2023-03-29T20:50:30.588Z,1988.8462
2023-03-29T20:51:32.185Z,2000.9231
2023-03-29T20:52:33.597Z,2003.0000
2023-03-29T20:53:35.121Z,2007.2307
2023-03-29T20:54:36.715Z,2007.6923
2023-03-29T20:55:38.171Z,2019.0000
2023-03-29T20:56:40.715Z,2027.9231
2023-03-29T20:57:41.203Z,2031.6154
2023-03-29T20:58:42.694Z,2043.2307
2023-03-29T20:59:44.253Z,2063.8462
2023-03-29T21:00:45.761Z,2073.3076
2023-03-29T21:01:47.306Z,2067.1538
2023-03-29T21:02:48.867Z,2062.5386
2023-03-29T21:03:50.387Z,2057.0000
2023-03-29T21:04:51.963Z,2048.8462
2023-03-29T21:05:53.449Z,2048.2307
2023-03-29T21:06:54.914Z,2056.5386
2023-03-29T21:07:56.425Z,2079.4614
2023-03-29T21:08:57.942Z,2092.0769
2023-03-29T21:09:59.465Z,2091.8462
2023-03-29T21:11:01.140Z,2091.5386
2023-03-29T21:12:02.599Z,2107.4614
2023-03-29T21:13:04.041Z,2119.7693
2023-03-29T21:14:05.576Z,2107.0769
2023-03-29T21:15:07.084Z,2099.1538
2023-03-29T21:16:08.662Z,2104.2307
2023-03-29T21:17:10.186Z,2100.0769
2023-03-29T21:18:11.726Z,2073.0000
2023-03-29T21:19:13.169Z,2049.7693
2023-03-29T21:20:14.721Z,2041.2307
2023-03-29T21:21:16.252Z,2038.0769
2023-03-29T21:22:22.608Z,2034.7693
2023-03-29T21:23:26.055Z,2026.6923
2023-03-29T21:24:29.520Z,2019.7693
2023-03-29T21:25:29.615Z,2017.5385
2023-03-29T21:26:30.525Z,2006.8462
2023-03-29T21:27:31.555Z,2006.2307
2023-03-29T21:28:33.153Z,2005.0000
2023-03-29T21:29:35.434Z,2006.4615
2023-03-29T21:30:36.752Z,2138.0769
2023-03-29T21:31:37.276Z,2149.8462
2023-03-29T21:32:37.783Z,2114.0769
2023-03-29T21:33:40.801Z,2066.2307
2023-03-29T21:34:41.452Z,2075.4614
2023-03-29T21:35:42.447Z,2074.4614
2023-03-29T21:36:43.835Z,2080.2307
2023-03-29T21:37:45.334Z,2082.3845
2023-03-29T21:38:46.943Z,2074.1538
2023-03-29T21:39:49.518Z,2094.1538
2023-03-29T21:40:50.022Z,2194.5386
2023-03-29T21:41:51.422Z,2244.8462
2023-03-29T21:42:52.945Z,2232.4614
2023-03-29T21:43:54.475Z,2175.0769
2023-03-29T21:44:56.012Z,2160.2307
2023-03-29T21:45:57.613Z,2134.6155
2023-03-29T21:46:59.133Z,2124.0000
2023-03-29T21:48:00.647Z,2112.3076
2023-03-29T21:49:02.162Z,2097.0000
2023-03-29T21:50:03.652Z,2086.0000
2023-03-29T21:51:05.446Z,2083.1538
2023-03-29T21:52:06.683Z,2108.0769
2023-03-29T21:53:08.693Z,2128.0000
2023-03-29T21:54:10.267Z,2043.9000
2023-03-29T22:06:32.735Z,2162.8181
2023-03-29T22:07:24.827Z,1925.7500
2023-03-29T22:08:26.439Z,1963.6923
2023-03-29T22:09:27.887Z,1976.6154
2023-03-29T22:10:29.432Z,1982.9231
2023-03-29T22:11:31.866Z,1993.2307
2023-03-29T22:12:32.473Z,2037.4615
2023-03-29T22:13:33.981Z,2047.6923
2023-03-29T22:14:36.243Z,2051.8462
2023-03-29T22:15:37.009Z,2055.6155
2023-03-29T22:16:40.956Z,2053.0000
2023-03-29T22:17:41.513Z,2050.3845
2023-03-29T22:18:42.765Z,2050.3076
2023-03-29T22:19:43.946Z,2057.7693
2023-03-29T22:20:45.197Z,2060.9231
2023-03-29T22:21:46.423Z,2048.1538
2023-03-29T22:22:47.808Z,2002.7693
2023-03-29T22:23:49.187Z,2026.7693
2023-03-29T22:24:51.888Z,2058.3845
2023-03-29T22:25:52.237Z,2066.2307
2023-03-29T22:26:53.742Z,2074.2307
2023-03-29T22:27:55.312Z,2068.3845
2023-03-29T22:28:57.378Z,2069.3076
2023-03-29T22:29:58.348Z,2068.8462
2023-03-29T22:31:00.288Z,2072.6155
2023-03-29T22:32:01.474Z,2076.1538
2023-03-29T22:33:02.984Z,2081.4614
2023-03-29T22:34:04.503Z,2071.1538
2023-03-29T22:35:05.942Z,2052.5386
2023-03-29T22:36:07.457Z,2074.6155
2023-03-29T22:37:08.978Z,2073.9231
2023-03-29T22:38:10.503Z,2073.3845
2023-03-29T22:39:12.038Z,2073.3845
2023-03-29T22:40:13.558Z,2068.5386
2023-03-29T22:41:15.071Z,2065.7693
2023-03-29T22:42:16.609Z,2060.6155
2023-03-29T22:43:18.140Z,2047.0000
2023-03-29T22:44:19.640Z,2051.9231
2023-03-29T22:45:21.206Z,2069.7693
2023-03-29T22:46:22.777Z,2071.3076
2023-03-29T22:47:24.240Z,2069.8462
2023-03-29T22:48:25.709Z,2067.3076
2023-03-29T22:49:27.257Z,2100.9231
2023-03-29T22:50:28.769Z,2119.6924
2023-03-29T22:51:30.301Z,2100.8462
2023-03-29T22:52:31.852Z,2083.6155
2023-03-29T22:53:33.376Z,2053.3076
2023-03-29T22:54:34.864Z,2049.6155
2023-03-29T22:55:36.375Z,2055.6924
2023-03-29T22:56:37.997Z,2065.4614
2023-03-29T22:57:39.472Z,2088.9231
2023-03-29T22:58:40.988Z,2096.3845
2023-03-29T22:59:42.493Z,2091.0769
2023-03-29T23:00:44.019Z,2086.5386
2023-03-29T23:01:45.514Z,2077.3845
2023-03-29T23:02:47.031Z,2075.7693
2023-03-29T23:03:48.595Z,2072.8462
2023-03-29T23:04:50.222Z,2068.8462
2023-03-29T23:05:51.587Z,2063.6155
2023-03-29T23:06:53.193Z,2055.0000
2023-03-29T23:07:54.624Z,2048.0000
2023-03-29T23:08:56.170Z,2043.6154
2023-03-29T23:09:57.723Z,2042.0000
2023-03-29T23:10:59.188Z,2036.0000
2023-03-29T23:12:00.854Z,2014.9231
2023-03-29T23:13:02.224Z,1979.7693
2023-03-29T23:14:03.744Z,2003.4615
2023-03-29T23:15:05.304Z,2012.7693
2023-03-29T23:16:06.889Z,2006.0769
2023-03-29T23:17:08.307Z,1988.1538
2023-03-29T23:18:09.852Z,1983.1538
2023-03-29T23:19:11.347Z,1981.7693
2023-03-29T23:20:12.938Z,1976.6923
2023-03-29T23:21:14.397Z,1974.3846
2023-03-29T23:22:15.951Z,1966.8462
2023-03-29T23:23:17.438Z,1955.5385
2023-03-29T23:24:19.323Z,1947.3846
2023-03-29T23:25:20.490Z,1936.7693
2023-03-29T23:26:22.003Z,1928.6154
2023-03-29T23:27:23.576Z,1924.0769
2023-03-29T23:28:25.069Z,1928.2307
2023-03-29T23:29:26.567Z,1921.5385
2023-03-29T23:30:28.108Z,1916.6923
2023-03-29T23:31:29.657Z,1911.3077
2023-03-29T23:32:31.165Z,1906.0769
2023-03-29T23:33:32.689Z,1902.5385
2023-03-29T23:34:34.185Z,1903.3077
2023-03-29T23:35:35.773Z,1899.3077
2023-03-29T23:36:37.233Z,1898.3077
2023-03-29T23:37:38.799Z,1902.0000
2023-03-29T23:38:40.262Z,1899.2307
2023-03-29T23:39:41.826Z,1900.0769
2023-03-29T23:40:43.316Z,1898.2307
2023-03-29T23:41:44.915Z,1895.3846
2023-03-29T23:42:46.384Z,1893.8462
2023-03-29T23:43:47.913Z,1892.0769
2023-03-29T23:44:49.402Z,1888.3846
2023-03-29T23:45:51.083Z,1887.7693
2023-03-29T23:46:52.541Z,1886.5385
2023-03-29T23:47:54.025Z,1890.1538
2023-03-29T23:48:55.554Z,1890.3846
2023-03-29T23:49:57.016Z,1884.3077
2023-03-29T23:50:59.616Z,1882.8462
2023-03-29T23:52:00.077Z,1884.4615
2023-03-29T23:53:01.560Z,1876.3077
2023-03-29T23:54:03.120Z,1869.6154
2023-03-29T23:55:04.595Z,1870.5385
2023-03-29T23:56:06.139Z,1866.3846
2023-03-29T23:57:07.757Z,1864.0000
2023-03-29T23:58:09.156Z,1865.3846
2023-03-29T23:59:10.741Z,1861.9231
